Time;durP1;ratioP1;P1;durP2;ratioP2;P2;SDS_P1;SDS_P2;PMS_P1;PMS_P2;Temp;Humidity;BMP_temperature;BMP_pressure;BME280_temperature;BME280_humidity;BME280_pressure;Samples;Min_cycle;Max_cycle;Signal;HPM_P1;HPM_P2
2022/05/07 00:01:58;;;;;;;13.23;11.83;;;10.40;99.90;;;;;;4815816;29;21635;-87
2022/05/07 00:04:24;;;;;;;10.67;9.77;;;10.30;99.90;;;;;;4820127;29;20238;-87
2022/05/07 00:06:49;;;;;;;11.47;10.37;;;10.20;99.90;;;;;;4818154;29;20724;-87
2022/05/07 00:09:15;;;;;;;11.87;10.70;;;10.10;99.90;;;;;;4845191;29;20182;-87
2022/05/07 00:11:41;;;;;;;12.73;11.53;;;10.00;99.90;;;;;;4831346;29;20205;-87
2022/05/07 00:14:07;;;;;;;12.03;10.87;;;9.90;99.90;;;;;;4830640;29;20277;-87
2022/05/07 00:19:17;;;;;;;11.83;10.80;;;9.80;99.90;;;;;;4832632;29;20189;-87
2022/05/07 00:21:43;;;;;;;12.27;10.20;;;9.70;99.90;;;;;;4832220;29;20465;-87
2022/05/07 00:24:08;;;;;;;10.57;9.57;;;9.70;99.90;;;;;;4833201;29;20455;-87
2022/05/07 00:26:34;;;;;;;12.53;11.23;;;9.70;99.90;;;;;;4844166;29;20206;-87
2022/05/07 00:29:00;;;;;;;11.73;10.53;;;9.70;99.90;;;;;;4830558;29;20191;-87
2022/05/07 00:31:25;;;;;;;11.83;10.83;;;9.70;99.90;;;;;;4832531;29;20234;-87
2022/05/07 00:33:51;;;;;;;11.50;10.50;;;9.70;99.90;;;;;;4835458;29;20650;-87
2022/05/07 00:36:16;;;;;;;12.00;10.63;;;9.70;99.90;;;;;;4828194;29;20191;-87
2022/05/07 00:38:42;;;;;;;10.87;9.93;;;9.80;99.90;;;;;;4824320;29;20206;-87
2022/05/07 00:41:07;;;;;;;10.87;9.77;;;9.70;99.90;;;;;;4822372;29;20661;-87
2022/05/07 00:43:41;;;;;;;11.80;10.60;;;9.70;99.90;;;;;;4813788;29;20218;-87
2022/05/07 00:46:19;;;;;;;12.13;10.93;;;9.60;99.90;;;;;;4827352;29;20459;-87
2022/05/07 00:48:50;;;;;;;11.17;10.17;;;9.60;99.90;;;;;;4814531;29;21274;-87
2022/05/07 00:51:34;;;;;;;11.00;10.10;;;9.60;99.90;;;;;;4813513;29;21043;-87
2022/05/07 00:54:07;;;;;;;11.53;10.43;;;9.60;99.90;;;;;;4810754;29;20539;-87
2022/05/07 00:56:34;;;;;;;11.17;9.80;;;9.60;99.90;;;;;;4825685;29;20474;-87
2022/05/07 00:59:00;;;;;;;11.40;10.30;;;9.60;99.90;;;;;;4824888;29;20439;-87
2022/05/07 01:01:26;;;;;;;11.40;10.40;;;9.60;99.90;;;;;;4816910;29;20484;-87
2022/05/07 01:03:53;;;;;;;11.40;10.20;;;9.60;99.90;;;;;;4817458;29;20453;-86
2022/05/07 01:06:22;;;;;;;11.50;10.43;;;9.60;99.90;;;;;;4817381;29;20458;-87
2022/05/07 01:08:48;;;;;;;10.87;9.97;;;9.80;99.90;;;;;;4826341;29;20475;-87
2022/05/07 01:11:16;;;;;;;11.00;10.00;;;9.60;99.90;;;;;;4827521;29;20784;-87
2022/05/07 01:13:44;;;;;;;10.67;9.57;;;9.60;99.90;;;;;;4822419;29;20447;-87
2022/05/07 01:16:11;;;;;;;11.10;10.10;;;9.60;99.90;;;;;;4815116;29;21322;-87
2022/05/07 01:18:38;;;;;;;10.80;9.80;;;9.50;99.90;;;;;;4824981;29;20462;-87
2022/05/07 01:21:13;;;;;;;10.53;9.63;;;9.40;99.90;;;;;;4816207;29;20462;-87
2022/05/07 01:23:41;;;;;;;11.63;10.43;;;9.40;99.90;;;;;;4816836;29;20460;-87
2022/05/07 01:26:07;;;;;;;11.70;10.67;;;9.40;99.90;;;;;;4827455;29;20454;-87
2022/05/07 01:28:35;;;;;;;11.27;10.17;;;9.30;99.90;;;;;;4823108;29;21492;-87
2022/05/07 01:31:09;;;;;;;12.00;10.90;;;9.30;99.90;;;;;;4816335;29;20540;-87
2022/05/07 01:33:40;;;;;;;11.20;10.23;;;9.30;99.90;;;;;;4810187;29;20980;-88
2022/05/07 01:36:16;;;;;;;10.27;9.37;;;9.30;99.90;;;;;;4815605;29;20597;-87
2022/05/07 01:38:41;;;;;;;10.47;9.47;;;9.20;99.90;;;;;;4821611;29;20464;-87
2022/05/07 01:41:07;;;;;;;9.80;8.80;;;9.30;99.90;;;;;;4816767;29;20439;-87
2022/05/07 01:43:33;;;;;;;10.03;9.23;;;9.20;99.90;;;;;;4824477;29;20199;-87
2022/05/07 01:46:01;;;;;;;11.30;10.30;;;9.10;99.90;;;;;;4820106;29;20190;-86
2022/05/07 01:48:27;;;;;;;12.60;10.80;;;9.00;99.90;;;;;;4811696;29;21020;-87
2022/05/07 01:50:56;;;;;;;10.47;9.37;;;9.00;99.90;;;;;;4815418;29;20257;-87
2022/05/07 01:53:27;;;;;;;11.00;9.90;;;9.00;99.90;;;;;;4837791;29;20550;-87
2022/05/07 01:55:53;;;;;;;14.63;10.93;;;9.10;99.90;;;;;;4826068;29;21055;-87
2022/05/07 01:58:21;;;;;;;12.37;11.13;;;9.20;99.90;;;;;;4817972;29;20874;-87
2022/05/07 02:00:46;;;;;;;19.63;11.83;;;9.20;99.90;;;;;;4822924;29;20466;-87
2022/05/07 02:03:12;;;;;;;12.20;10.90;;;9.30;99.90;;;;;;4815147;29;20534;-87
2022/05/07 02:05:37;;;;;;;12.60;11.40;;;9.30;99.90;;;;;;4817620;29;20212;-88
2022/05/07 02:08:04;;;;;;;11.13;10.13;;;9.30;99.90;;;;;;4837213;29;20206;-87
2022/05/07 02:10:29;;;;;;;11.20;10.03;;;9.30;99.90;;;;;;4813663;29;20586;-88
2022/05/07 02:12:55;;;;;;;11.57;10.47;;;9.20;99.90;;;;;;4815425;29;20455;-87
2022/05/07 02:15:21;;;;;;;10.77;9.73;;;9.10;99.90;;;;;;4824057;29;20201;-87
2022/05/07 02:17:47;;;;;;;10.60;9.70;;;9.00;99.90;;;;;;4819558;29;20962;-87
2022/05/07 02:20:12;;;;;;;10.63;9.70;;;8.90;99.90;;;;;;4836849;29;20222;-88
2022/05/07 02:22:40;;;;;;;10.10;9.10;;;8.80;99.90;;;;;;4830988;29;20560;-88
2022/05/07 02:25:09;;;;;;;11.00;9.93;;;8.70;99.90;;;;;;4831245;29;20194;-87
2022/05/07 02:27:42;;;;;;;10.73;9.47;;;8.70;99.90;;;;;;4845005;29;20759;-88
2022/05/07 02:30:22;;;;;;;12.30;9.47;;;8.60;99.90;;;;;;4845625;29;21067;-87
2022/05/07 02:32:48;;;;;;;11.00;9.43;;;8.60;99.90;;;;;;4840291;29;20470;-88
2022/05/07 02:35:17;;;;;;;9.63;8.73;;;8.60;99.90;;;;;;4842083;29;20443;-88
2022/05/07 02:37:45;;;;;;;12.50;10.87;;;8.60;99.90;;;;;;4840116;29;20233;-87
2022/05/07 02:40:19;;;;;;;11.37;10.27;;;8.50;99.90;;;;;;4826246;29;21021;-88
2022/05/07 02:42:50;;;;;;;10.87;9.77;;;8.50;99.90;;;;;;4830008;29;22360;-88
2022/05/07 02:45:16;;;;;;;12.47;11.23;;;8.50;99.90;;;;;;4822479;29;20454;-88
2022/05/07 02:48:05;;;;;;;11.33;10.23;;;8.40;99.90;;;;;;4819906;29;20903;-87
2022/05/07 02:50:33;;;;;;;10.50;9.40;;;8.40;99.90;;;;;;4832900;29;20847;-88
2022/05/07 02:53:15;;;;;;;11.40;10.30;;;8.40;99.90;;;;;;4838200;29;20868;-88
2022/05/07 02:55:44;;;;;;;11.30;10.30;;;8.40;99.90;;;;;;4824730;29;20465;-88
2022/05/07 02:58:22;;;;;;;11.37;10.13;;;8.40;99.90;;;;;;4818064;29;20466;-88
2022/05/07 03:00:56;;;;;;;10.43;9.43;;;8.40;99.90;;;;;;4833041;29;20446;-87
2022/05/07 03:03:29;;;;;;;10.70;9.30;;;8.40;99.90;;;;;;4821304;29;21181;-87
2022/05/07 03:05:59;;;;;;;9.80;8.80;;;8.40;99.90;;;;;;4817052;29;20494;-87
2022/05/07 03:08:25;;;;;;;9.50;8.60;;;8.40;99.90;;;;;;4820763;29;21670;-88
2022/05/07 03:10:51;;;;;;;9.67;8.77;;;8.30;99.90;;;;;;4816898;29;20490;-87
2022/05/07 03:13:16;;;;;;;11.20;9.30;;;8.30;99.90;;;;;;4836653;29;20507;-88
2022/05/07 03:15:46;;;;;;;10.13;9.13;;;8.20;99.90;;;;;;4847071;29;20290;-88
2022/05/07 03:18:14;;;;;;;10.20;9.20;;;8.20;99.90;;;;;;4825024;29;20197;-87
2022/05/07 03:20:40;;;;;;;9.93;9.03;;;8.10;99.90;;;;;;4826004;29;20500;-88
2022/05/07 03:23:11;;;;;;;11.13;9.60;;;8.10;99.90;;;;;;4834993;29;20459;-87
2022/05/07 03:25:36;;;;;;;8.50;7.80;;;8.10;99.90;;;;;;4850144;29;20193;-88
2022/05/07 03:28:03;;;;;;;8.60;7.83;;;8.10;99.90;;;;;;4824970;29;21127;-88
2022/05/07 03:30:29;;;;;;;8.90;8.00;;;8.10;99.90;;;;;;4841845;29;20224;-86
2022/05/07 03:32:55;;;;;;;9.57;8.67;;;8.10;99.90;;;;;;4829466;29;20447;-89
2022/05/07 03:35:20;;;;;;;9.13;8.23;;;8.00;99.90;;;;;;4837820;29;20190;-88
2022/05/07 03:37:46;;;;;;;9.90;8.90;;;8.00;99.90;;;;;;4819508;29;20212;-88
2022/05/07 03:40:12;;;;;;;10.83;9.77;;;8.10;99.90;;;;;;4841514;29;20183;-88
2022/05/07 03:42:37;;;;;;;10.70;9.70;;;8.10;99.90;;;;;;4826816;29;20251;-87
2022/05/07 03:45:03;;;;;;;11.17;10.17;;;8.20;99.90;;;;;;4833279;29;20193;-86
2022/05/07 03:47:29;;;;;;;10.40;9.47;;;8.20;99.90;;;;;;4848404;29;20204;-86
2022/05/07 03:49:56;;;;;;;10.57;9.27;;;8.30;99.90;;;;;;4839764;29;21429;-86
2022/05/07 03:55:06;;;;;;;10.83;9.80;;;8.20;99.90;;;;;;4824024;29;20461;-85
2022/05/07 03:57:31;;;;;;;11.03;9.97;;;8.10;99.90;;;;;;4842394;29;20908;-86
2022/05/07 03:59:57;;;;;;;11.40;10.20;;;8.00;99.90;;;;;;4821695;29;20461;-85
2022/05/07 04:02:23;;;;;;;10.73;9.60;;;8.00;99.90;;;;;;4827898;29;20314;-86
2022/05/07 04:04:51;;;;;;;11.00;9.90;;;7.90;99.90;;;;;;4841534;29;20838;-86
2022/05/07 04:07:17;;;;;;;11.30;10.20;;;8.00;99.90;;;;;;4825646;29;20227;-86
2022/05/07 04:09:47;;;;;;;11.00;9.90;;;8.00;99.90;;;;;;4830900;29;20495;-86
2022/05/07 04:12:12;;;;;;;10.30;9.30;;;8.00;99.90;;;;;;4820425;29;20463;-86
2022/05/07 04:14:38;;;;;;;10.63;9.60;;;8.00;99.90;;;;;;4830378;29;20454;-86
2022/05/07 04:17:04;;;;;;;10.90;9.90;;;8.00;99.90;;;;;;4821294;29;20262;-86
2022/05/07 04:19:29;;;;;;;10.93;9.93;;;8.00;99.90;;;;;;4824323;29;20194;-86
2022/05/07 04:21:55;;;;;;;11.03;9.93;;;8.10;99.90;;;;;;4814830;29;20474;-85
2022/05/07 04:24:21;;;;;;;11.90;10.30;;;8.10;99.90;;;;;;4798491;29;20924;-86
2022/05/07 04:26:46;;;;;;;11.60;10.40;;;8.10;99.90;;;;;;4815216;29;21299;-85
2022/05/07 04:29:16;;;;;;;12.00;10.80;;;8.10;99.90;;;;;;4835348;29;20201;-86
2022/05/07 04:31:42;;;;;;;11.33;10.10;;;8.10;99.90;;;;;;4817253;29;20223;-85
2022/05/07 04:34:08;;;;;;;11.83;9.87;;;8.10;99.90;;;;;;4829875;29;21096;-85
2022/05/07 04:36:33;;;;;;;11.33;9.90;;;8.00;99.90;;;;;;4834459;29;20611;-85
2022/05/07 04:39:01;;;;;;;12.20;10.90;;;8.10;99.90;;;;;;4825048;29;20193;-86
2022/05/07 04:41:32;;;;;;;11.57;10.57;;;8.10;99.90;;;;;;4832455;29;20210;-85
2022/05/07 04:43:58;;;;;;;11.60;9.90;;;8.10;99.90;;;;;;4818643;29;20950;-84
2022/05/07 04:46:26;;;;;;;11.83;10.63;;;8.00;99.90;;;;;;4814695;29;20447;-87
2022/05/07 04:48:52;;;;;;;11.80;10.30;;;8.10;99.90;;;;;;4818835;29;20255;-87
2022/05/07 04:51:21;;;;;;;10.90;9.80;;;8.10;99.90;;;;;;4819588;29;20503;-87
2022/05/07 04:53:47;;;;;;;14.10;10.37;;;8.20;99.90;;;;;;4811548;29;20202;-87
2022/05/07 04:56:12;;;;;;;11.73;10.60;;;8.20;99.90;;;;;;4820854;29;20480;-87
2022/05/07 04:58:39;;;;;;;11.23;10.07;;;8.20;99.90;;;;;;4823410;29;20201;-88
2022/05/07 05:01:07;;;;;;;11.47;10.37;;;8.20;99.90;;;;;;4820953;29;20281;-86
2022/05/07 05:03:34;;;;;;;13.30;11.30;;;8.20;99.90;;;;;;4823649;29;20455;-87
2022/05/07 05:06:00;;;;;;;13.93;11.30;;;8.20;99.90;;;;;;4825011;29;20564;-87
2022/05/07 05:08:26;;;;;;;11.63;10.50;;;8.30;99.90;;;;;;4820091;29;20510;-88
2022/05/07 05:10:52;;;;;;;11.60;10.50;;;8.30;99.90;;;;;;4815093;29;20367;-88
2022/05/07 05:13:17;;;;;;;13.27;10.50;;;8.40;99.90;;;;;;4816728;29;21007;-87
2022/05/07 05:15:44;;;;;;;10.90;9.80;;;8.40;99.90;;;;;;4816535;29;20206;-87
2022/05/07 05:18:12;;;;;;;11.40;10.20;;;8.50;99.90;;;;;;4816800;29;20196;-87
2022/05/07 05:20:40;;;;;;;11.13;10.03;;;8.50;99.90;;;;;;4836135;29;20470;-87
2022/05/07 05:23:14;;;;;;;11.37;10.27;;;8.60;99.90;;;;;;4812475;29;20480;-87
2022/05/07 05:25:45;;;;;;;11.83;10.63;;;8.60;99.90;;;;;;4813218;29;20455;-87
2022/05/07 05:28:11;;;;;;;12.73;10.00;;;8.70;99.90;;;;;;4816758;29;21850;-87
2022/05/07 05:30:37;;;;;;;11.80;10.60;;;8.80;99.90;;;;;;4836951;29;20597;-87
2022/05/07 05:33:03;;;;;;;11.23;10.10;;;8.90;99.90;;;;;;4845319;29;20454;-88
2022/05/07 05:35:31;;;;;;;12.00;10.80;;;9.00;99.90;;;;;;4825203;29;20681;-87
2022/05/07 05:38:11;;;;;;;11.37;10.17;;;9.10;99.90;;;;;;4811519;29;20195;-86
2022/05/07 05:40:41;;;;;;;12.40;11.10;;;9.20;99.90;;;;;;4842967;29;21036;-87
2022/05/07 05:43:11;;;;;;;12.03;10.80;;;9.30;99.90;;;;;;4826493;29;20447;-87
2022/05/07 05:45:42;;;;;;;12.00;10.90;;;9.50;99.90;;;;;;4827287;29;20458;-87
2022/05/07 05:48:13;;;;;;;11.27;10.13;;;9.50;99.90;;;;;;4810160;29;20861;-86
2022/05/07 05:50:41;;;;;;;12.67;10.80;;;9.60;99.90;;;;;;4820699;29;20616;-86
2022/05/07 05:53:24;;;;;;;12.27;11.10;;;9.70;99.90;;;;;;4816157;29;21414;-86
2022/05/07 05:56:02;;;;;;;11.50;10.40;;;9.80;99.90;;;;;;4815505;29;20519;-86
2022/05/07 05:58:35;;;;;;;12.93;11.67;;;9.80;99.90;;;;;;4833048;29;20545;-86
2022/05/07 06:01:08;;;;;;;12.60;11.30;;;9.90;99.90;;;;;;4823884;29;20459;-86
2022/05/07 06:03:35;;;;;;;13.17;11.93;;;9.90;99.90;;;;;;4809512;29;20890;-85
2022/05/07 06:06:01;;;;;;;14.00;11.53;;;10.00;99.90;;;;;;4813322;29;21102;-85
2022/05/07 06:08:27;;;;;;;12.00;10.53;;;9.90;99.90;;;;;;4823570;29;20802;-85
2022/05/07 06:10:54;;;;;;;12.07;10.87;;;10.00;99.90;;;;;;4825443;29;20226;-86
2022/05/07 06:13:24;;;;;;;13.23;11.73;;;10.20;99.90;;;;;;4814198;29;20186;-86
2022/05/07 06:16:05;;;;;;;11.83;10.50;;;10.30;99.90;;;;;;4801398;29;20456;-86
2022/05/07 06:18:35;;;;;;;13.43;12.03;;;10.40;99.90;;;;;;4804045;29;21262;-86
2022/05/07 06:21:03;;;;;;;11.70;10.50;;;10.60;99.90;;;;;;4830282;29;20462;-86
2022/05/07 06:23:29;;;;;;;11.83;10.57;;;10.70;99.90;;;;;;4813813;29;20527;-86
2022/05/07 06:28:46;;;;;;;12.07;10.77;;;10.70;99.90;;;;;;4822653;29;20653;-86
2022/05/07 06:31:17;;;;;;;11.80;10.70;;;10.60;99.90;;;;;;4817594;29;20490;-85
2022/05/07 06:33:55;;;;;;;12.40;11.20;;;10.70;99.90;;;;;;4838827;29;20546;-86
2022/05/07 06:36:21;;;;;;;11.53;10.50;;;11.00;99.90;;;;;;4833813;29;20451;-86
2022/05/07 06:38:47;;;;;;;13.30;11.97;;;11.10;99.90;;;;;;4826712;29;20451;-86
2022/05/07 06:41:16;;;;;;;13.13;11.03;;;11.40;99.90;;;;;;4815320;29;20289;-88
2022/05/07 06:43:41;;;;;;;11.83;10.40;;;11.60;99.90;;;;;;4829223;29;20201;-89
2022/05/07 06:46:10;;;;;;;12.70;11.37;;;11.90;99.90;;;;;;4805713;29;20894;-88
2022/05/07 06:48:38;;;;;;;12.57;11.40;;;11.90;99.90;;;;;;4821256;29;20205;-87
2022/05/07 06:51:13;;;;;;;13.50;11.40;;;12.20;99.90;;;;;;4821856;29;20491;-88
2022/05/07 06:53:45;;;;;;;12.80;11.40;;;12.30;99.90;;;;;;4822362;29;21265;-90
2022/05/07 06:56:16;;;;;;;13.80;12.33;;;12.50;99.90;;;;;;4815867;29;20702;-87
2022/05/07 06:58:41;;;;;;;13.33;12.07;;;12.40;99.90;;;;;;4810836;29;21710;-88
2022/05/07 07:01:07;;;;;;;13.47;12.27;;;12.50;99.90;;;;;;4826876;29;21020;-86
2022/05/07 07:03:53;;;;;;;13.00;11.80;;;12.90;99.90;;;;;;4837002;29;20611;-87
2022/05/07 07:06:27;;;;;;;13.37;11.97;;;12.60;99.90;;;;;;4817389;29;20458;-86
2022/05/07 07:09:16;;;;;;;12.50;11.27;;;12.90;99.90;;;;;;4811899;29;20547;-86
2022/05/07 07:11:47;;;;;;;13.13;11.73;;;13.10;99.90;;;;;;4808455;29;20632;-86
2022/05/07 07:14:13;;;;;;;14.03;12.77;;;13.00;99.90;;;;;;4832036;29;21015;-86
2022/05/07 07:16:41;;;;;;;13.80;12.33;;;13.40;99.90;;;;;;4819939;29;20980;-86
2022/05/07 07:19:22;;;;;;;14.00;12.60;;;13.40;99.90;;;;;;4837104;29;20454;-88
2022/05/07 07:21:49;;;;;;;14.57;13.23;;;13.30;99.90;;;;;;4826892;29;20846;-86
2022/05/07 07:24:22;;;;;;;13.97;12.63;;;13.20;99.90;;;;;;4808388;29;20455;-86
2022/05/07 07:26:55;;;;;;;12.60;11.30;;;13.10;99.90;;;;;;4809344;29;20447;-86
2022/05/07 07:29:29;;;;;;;12.07;11.00;;;13.30;99.90;;;;;;4826738;29;20453;-85
2022/05/07 07:31:55;;;;;;;13.07;11.77;;;13.40;99.90;;;;;;4826786;29;20509;-87
2022/05/07 07:34:23;;;;;;;11.80;10.80;;;13.50;99.90;;;;;;4832842;29;20439;-86
2022/05/07 07:36:50;;;;;;;13.23;12.03;;;13.70;99.90;;;;;;4826133;29;20198;-86
2022/05/07 07:39:18;;;;;;;11.97;10.97;;;13.90;99.90;;;;;;4826085;29;20450;-86
2022/05/07 07:41:57;;;;;;;12.77;11.37;;;14.00;99.90;;;;;;4797654;29;20515;-87
2022/05/07 07:47:56;;;;;;;12.10;11.00;;;14.20;99.90;;;;;;4841110;29;20507;-87
2022/05/07 07:47:57;;;;;;;10.77;9.87;;;14.60;99.90;;;;;;4818788;29;20482;-87
2022/05/07 07:50:38;;;;;;;12.33;11.23;;;14.90;99.90;;;;;;4822950;29;20499;-87
2022/05/07 07:53:11;;;;;;;11.50;10.50;;;15.70;99.90;;;;;;4824090;29;20507;-87
2022/05/07 07:55:38;;;;;;;11.57;10.50;;;15.20;99.90;;;;;;4813580;29;20547;-87
2022/05/07 07:58:07;;;;;;;11.10;10.07;;;16.10;99.90;;;;;;4824799;29;20458;-86
2022/05/07 08:00:37;;;;;;;10.83;9.93;;;15.60;99.90;;;;;;4824159;29;21187;-87
2022/05/07 08:03:12;;;;;;;12.30;9.73;;;15.30;99.90;;;;;;4828915;29;20622;-86
2022/05/07 08:05:43;;;;;;;10.47;9.47;;;15.70;99.90;;;;;;4838012;29;20886;-87
2022/05/07 08:14:13;;;;;;;12.70;11.43;;;16.10;99.90;;;;;;4825103;29;20541;-87
2022/05/07 08:16:40;;;;;;;13.83;12.50;;;16.60;99.90;;;;;;4838843;29;20490;-87
2022/05/07 08:19:06;;;;;;;12.70;11.50;;;16.10;99.90;;;;;;4801160;29;20459;-87
2022/05/07 08:21:32;;;;;;;12.63;11.53;;;16.30;99.90;;;;;;4827062;29;20501;-87
2022/05/07 08:23:58;;;;;;;12.20;11.10;;;16.50;99.90;;;;;;4818212;29;20291;-87
2022/05/07 08:26:24;;;;;;;13.00;11.70;;;17.20;99.90;;;;;;4818262;29;20455;-86
2022/05/07 08:28:53;;;;;;;13.43;12.30;;;16.80;99.90;;;;;;4828029;29;20471;-86
2022/05/07 08:31:23;;;;;;;14.00;12.60;;;17.00;99.90;;;;;;4806932;29;20325;-87
2022/05/07 08:33:52;;;;;;;13.90;12.63;;;17.10;99.90;;;;;;4817789;29;20457;-86
2022/05/07 08:36:18;;;;;;;16.33;13.37;;;16.60;99.90;;;;;;4826872;29;20458;-86
2022/05/07 08:38:43;;;;;;;14.00;12.70;;;17.50;99.90;;;;;;4818177;29;20514;-87
2022/05/07 08:41:12;;;;;;;13.43;12.23;;;17.10;99.90;;;;;;4821239;29;20263;-87
2022/05/07 08:43:41;;;;;;;13.23;12.13;;;17.30;99.90;;;;;;4799099;29;20451;-86
2022/05/07 08:46:35;;;;;;;13.83;12.63;;;17.20;99.90;;;;;;4834602;29;20465;-87
2022/05/07 08:49:06;;;;;;;15.13;12.93;;;17.40;99.90;;;;;;4829332;29;20446;-86
2022/05/07 08:51:33;;;;;;;14.10;12.70;;;17.50;99.90;;;;;;4830023;29;20571;-86
2022/05/07 08:54:18;;;;;;;13.53;12.37;;;17.60;99.90;;;;;;4818241;29;20474;-89
2022/05/07 08:56:44;;;;;;;14.67;13.33;;;17.80;99.90;;;;;;4817945;29;23573;-86
2022/05/07 08:59:13;;;;;;;15.03;13.73;;;18.00;99.90;;;;;;4803796;29;21143;-87
2022/05/07 09:01:42;;;;;;;15.60;14.20;;;18.00;99.90;;;;;;4799638;29;20331;-88
2022/05/07 09:04:09;;;;;;;14.30;12.90;;;18.50;99.90;;;;;;4817196;29;20455;-87
2022/05/07 09:06:42;;;;;;;15.10;13.80;;;18.20;99.90;;;;;;4805709;29;20506;-87
2022/05/07 09:09:08;;;;;;;14.77;13.43;;;18.50;99.90;;;;;;4794685;29;20978;-87
2022/05/07 09:11:42;;;;;;;13.50;12.40;;;18.50;99.90;;;;;;4819016;29;20909;-86
2022/05/07 09:14:09;;;;;;;13.93;12.77;;;18.50;99.90;;;;;;4801952;29;20490;-87
2022/05/07 09:16:43;;;;;;;13.87;12.47;;;19.30;99.90;;;;;;4802162;29;20454;-87
2022/05/07 09:19:28;;;;;;;9.93;9.13;;;18.70;99.90;;;;;;4802632;29;20447;-86
2022/05/07 09:22:08;;;;;;;10.40;9.50;;;18.50;99.90;;;;;;4803659;29;21402;-86
2022/05/07 09:24:34;;;;;;;13.00;11.67;;;18.90;99.90;;;;;;4814147;29;21213;-86
2022/05/07 09:27:00;;;;;;;14.53;9.97;;;18.90;99.90;;;;;;4801960;29;21953;-86
2022/05/07 09:29:29;;;;;;;11.70;10.70;;;18.90;98.90;;;;;;4809985;29;21759;-86
2022/05/07 09:32:15;;;;;;;11.57;10.17;;;19.00;99.60;;;;;;4808570;29;20219;-87
2022/05/07 09:37:39;;;;;;;10.27;9.43;;;19.40;99.80;;;;;;4820834;29;20516;-87
2022/05/07 09:40:09;;;;;;;10.70;9.90;;;19.60;99.90;;;;;;4819678;29;20812;-87
2022/05/07 09:42:35;;;;;;;9.90;8.53;;;19.80;99.30;;;;;;4821718;29;24649;-86
2022/05/07 09:45:03;;;;;;;9.23;8.27;;;19.70;98.10;;;;;;4832539;29;20873;-86
2022/05/07 09:47:30;;;;;;;6.20;5.80;;;20.00;97.20;;;;;;4822283;29;20442;-86
2022/05/07 09:58:15;;;;;;;7.00;6.40;;;20.50;93.90;;;;;;4816821;29;20510;-86
2022/05/07 10:01:07;;;;;;;5.90;5.40;;;20.20;91.90;;;;;;4829894;29;20451;-85
2022/05/07 10:03:53;;;;;;;5.83;5.30;;;20.50;93.20;;;;;;4804153;29;21040;-88
2022/05/07 10:07:12;;;;;;;4.70;4.30;;;21.50;91.40;;;;;;4800135;29;20445;-88
2022/05/07 10:10:16;;;;;;;4.40;3.57;;;21.60;92.10;;;;;;4823826;29;20482;-87
2022/05/07 10:13:19;;;;;;;5.00;4.70;;;22.00;88.60;;;;;;4818496;29;20462;-88
2022/05/07 10:15:45;;;;;;;6.50;5.33;;;21.90;87.80;;;;;;4826995;29;21193;-89
2022/05/07 10:19:01;;;;;;;5.87;5.47;;;21.80;88.70;;;;;;4827404;29;20500;-88
2022/05/07 10:21:26;;;;;;;6.07;5.57;;;21.90;87.00;;;;;;4819463;29;20872;-86
2022/05/07 10:23:58;;;;;;;4.70;4.30;;;21.60;91.50;;;;;;4828616;29;20459;-86
2022/05/07 10:26:46;;;;;;;7.50;6.80;;;22.00;87.80;;;;;;4823983;29;20329;-87
2022/05/07 10:29:37;;;;;;;;;;;;;;;;;;;;;
2022/05/07 10:32:10;;;;;;;6.00;5.40;;;21.80;85.90;;;;;;4829096;29;20985;-89
2022/05/07 10:34:48;;;;;;;6.50;5.90;;;21.00;86.80;;;;;;4833289;29;20885;-88
2022/05/07 10:37:14;;;;;;;4.70;4.30;;;21.20;89.40;;;;;;4832191;29;20451;-87
2022/05/07 10:39:52;;;;;;;5.03;4.63;;;20.70;88.90;;;;;;4838798;29;20455;-90
2022/05/07 10:42:22;;;;;;;4.20;3.83;;;20.00;86.00;;;;;;4824456;29;20194;-91
2022/05/07 10:44:55;;;;;;;4.73;4.27;;;19.60;89.60;;;;;;4836633;29;20739;-88
2022/05/07 10:47:21;;;;;;;4.90;4.50;;;19.50;89.60;;;;;;4821170;29;21777;-87
2022/05/07 10:50:15;;;;;;;5.77;4.87;;;19.60;88.50;;;;;;4823358;29;20479;-85
2022/05/07 10:52:41;;;;;;;5.47;5.07;;;20.70;88.60;;;;;;4825976;29;20214;-87
2022/05/07 10:55:08;;;;;;;5.17;4.77;;;21.30;89.80;;;;;;4830347;29;20495;-85
2022/05/07 10:57:38;;;;;;;5.00;4.57;;;21.70;84.80;;;;;;4828025;29;20468;-85
2022/05/07 11:00:26;;;;;;;5.63;5.10;;;21.80;81.70;;;;;;4831011;29;20809;-85
2022/05/07 11:02:58;;;;;;;4.40;4.00;;;21.70;85.70;;;;;;4831044;29;20428;-85
2022/05/07 11:05:34;;;;;;;5.40;4.90;;;21.80;83.40;;;;;;4833383;29;20454;-86
2022/05/07 11:08:02;;;;;;;4.17;3.87;;;21.60;81.40;;;;;;4828740;29;20493;-88
2022/05/07 11:10:29;;;;;;;4.53;4.23;;;22.60;88.30;;;;;;4820835;29;20485;-88
2022/05/07 11:13:08;;;;;;;5.60;5.20;;;22.00;83.80;;;;;;4825317;29;20826;-87
2022/05/07 11:15:34;;;;;;;4.97;4.50;;;20.80;85.20;;;;;;4822772;29;20454;-86
2022/05/07 11:18:00;;;;;;;5.37;4.87;;;19.90;86.50;;;;;;4819844;29;20831;-86
2022/05/07 11:20:44;;;;;;;5.37;4.97;;;20.00;89.00;;;;;;4826795;29;20183;-89
2022/05/07 11:23:13;;;;;;;5.43;4.93;;;20.20;87.30;;;;;;4820371;29;20226;-86
2022/05/07 11:25:40;;;;;;;5.20;4.70;;;20.30;89.80;;;;;;4816849;29;20457;-87
2022/05/07 11:28:06;;;;;;;6.00;5.10;;;20.40;88.70;;;;;;4813856;29;20467;-87
2022/05/07 11:30:34;;;;;;;5.40;4.90;;;20.60;85.00;;;;;;4814256;29;20834;-86
2022/05/07 11:33:08;;;;;;;5.17;4.67;;;21.20;87.40;;;;;;4830822;29;20542;-88
2022/05/07 11:35:34;;;;;;;5.33;4.83;;;20.50;83.40;;;;;;4821641;29;20480;-87
2022/05/07 11:38:12;;;;;;;5.63;4.93;;;21.00;86.40;;;;;;4813998;29;20965;-83
2022/05/07 11:40:37;;;;;;;5.00;4.50;;;21.30;85.50;;;;;;4817270;29;20284;-88
2022/05/07 11:45:47;;;;;;;5.30;4.20;;;20.70;81.50;;;;;;4816760;29;20285;-87
2022/05/07 11:48:14;;;;;;;4.77;4.40;;;21.40;80.90;;;;;;4826174;29;20481;-89
2022/05/07 11:50:59;;;;;;;4.53;4.17;;;22.60;85.80;;;;;;4822626;29;20228;-89
2022/05/07 11:53:35;;;;;;;4.83;4.30;;;22.00;81.60;;;;;;4833048;29;20449;-89
2022/05/07 11:56:09;;;;;;;4.63;4.20;;;22.60;85.90;;;;;;4831653;29;20446;-89
2022/05/07 11:58:45;;;;;;;4.33;4.03;;;22.10;80.50;;;;;;4844899;29;20486;-90
2022/05/07 12:01:28;;;;;;;5.20;4.60;;;22.60;79.50;;;;;;4826423;29;20435;-89
2022/05/07 12:03:54;;;;;;;5.00;4.50;;;21.80;73.70;;;;;;4827997;29;20465;-88
2022/05/07 12:06:28;;;;;;;4.70;3.90;;;22.40;73.40;;;;;;4833378;29;20442;-91
2022/05/07 12:08:54;;;;;;;4.40;4.00;;;21.90;73.80;;;;;;4825534;29;20462;-87
2022/05/07 12:11:22;;;;;;;4.67;4.00;;;22.00;72.00;;;;;;4814561;29;24719;-86
2022/05/07 12:13:47;;;;;;;6.13;3.73;;;21.50;77.90;;;;;;4816791;29;20668;-84
2022/05/07 12:18:57;;;;;;;3.93;3.50;;;22.10;81.70;;;;;;4811118;29;20214;-88
2022/05/07 12:29:49;;;;;;;5.03;3.50;;;21.10;74.90;;;;;;4832652;29;20865;-90
2022/05/07 12:32:19;;;;;;;4.93;3.60;;;21.60;76.10;;;;;;4823665;29;20499;-90
2022/05/07 12:34:45;;;;;;;4.97;3.30;;;21.70;76.60;;;;;;4811014;29;20945;-90
2022/05/07 12:37:11;;;;;;;5.00;4.13;;;22.90;81.20;;;;;;4815347;29;20455;-90
2022/05/07 12:39:38;;;;;;;3.13;2.83;;;23.10;78.50;;;;;;4817722;29;20660;-90
2022/05/07 12:42:07;;;;;;;4.77;3.97;;;23.50;72.40;;;;;;4809366;29;20470;-90
2022/05/07 12:44:33;;;;;;;5.30;3.40;;;22.90;75.50;;;;;;4817933;29;20566;-90
2022/05/07 12:46:59;;;;;;;3.90;3.57;;;22.00;71.00;;;;;;4812386;29;20570;-90
2022/05/07 12:49:27;;;;;;;4.33;3.20;;;22.70;80.00;;;;;;4823027;29;20542;-88
2022/05/07 12:51:53;;;;;;;3.47;3.27;;;23.10;78.10;;;;;;4821152;29;20223;-88
2022/05/07 12:54:19;;;;;;;4.10;3.30;;;22.50;69.20;;;;;;4830935;29;20456;-89
2022/05/07 12:56:47;;;;;;;3.90;3.30;;;23.10;71.70;;;;;;4828403;29;20202;-89
2022/05/07 12:59:13;;;;;;;4.40;3.23;;;22.80;73.10;;;;;;4829321;29;21167;-89
2022/05/07 13:01:41;;;;;;;3.57;3.33;;;23.70;80.50;;;;;;4831671;29;20516;-89
2022/05/07 13:04:14;;;;;;;3.13;2.90;;;22.80;70.10;;;;;;4830593;29;21121;-89
2022/05/07 13:06:40;;;;;;;3.43;3.23;;;22.80;79.40;;;;;;4828194;29;20451;-88
2022/05/07 13:09:11;;;;;;;2.73;2.50;;;22.30;67.10;;;;;;4829393;29;20447;-89
2022/05/07 13:11:36;;;;;;;4.13;2.90;;;22.70;68.90;;;;;;4834436;29;20285;-91
2022/05/07 13:14:02;;;;;;;3.40;3.10;;;22.80;71.70;;;;;;4835716;29;20889;-90
2022/05/07 13:16:27;;;;;;;3.97;3.00;;;23.40;74.10;;;;;;4827119;29;20201;-91
2022/05/07 13:18:53;;;;;;;3.10;2.90;;;22.70;74.90;;;;;;4844299;29;20202;-92
2022/05/07 13:21:18;;;;;;;5.03;3.30;;;22.90;74.60;;;;;;4843492;29;20637;-92
2022/05/07 13:23:44;;;;;;;3.17;2.97;;;23.00;75.80;;;;;;4829513;29;20187;-89
2022/05/07 13:26:30;;;;;;;3.90;3.13;;;24.70;73.40;;;;;;4824434;29;20657;-87
2022/05/07 13:29:15;;;;;;;;;;;;;;;;;;;;;
2022/05/07 13:31:43;;;;;;;2.80;2.40;;;24.50;73.60;;;;;;4826970;29;20952;-92
2022/05/07 13:34:09;;;;;;;3.17;2.97;;;25.00;69.00;;;;;;4822822;29;20435;-92
2022/05/07 13:36:34;;;;;;;3.03;2.73;;;24.80;68.30;;;;;;4843634;29;21296;-92